CheckWX is a tool to help pilots better visualize weather data.  It is not intended as a substitute for an official pre-flight weather briefing.

17:23:42 UTC

MHLC TAF
Goloson International Airport
La Ceiba, Honduras
TAF MHLC 181035Z 1812/1912 16003KT 9999 FEW024 SCT090 TX32/1819Z TN23/1912Z BECMG 1816/1818 07012KT 8000 VCSH FEW024CB SCT026TCU BECMG 1902/1904 VRB02KT 9999 NSW SCT026 SCT080

Jul-18@
12:00 UTC

Jul-18 @ 12:00 UTC

Jul-18@
16:00 UTC

Jul-18 @ 16:00 UTC

TAF MHLC 181035Z 1812/1912 16003KT 9999 FEW024 SCT090 TX32/1819Z TN23/1912Z

Expired

Wind
  • 160° at 3 KTS
Cloud Levels
  • Few at 2,400' AGL
  • Scattered at 9,000' AGL

Jul-18@
16:00 UTC

Jul-18 @ 16:00 UTC

Jul-19@
02:00 UTC

Jul-19 @ 02:00 UTC

BECMG 1816/1818 07012KT 8000 VCSH FEW024CB SCT026TCU

Becoming

Becoming Conditions expected by Thu, Jul 18, 2019 @ 18:00 UTC

Wind
  • 070° at 12 KTS
Cloud Levels
  • Few at 2,400' AGL
  • Scattered at 2,600' AGL

Jul-19@
02:00 UTC

Jul-19 @ 02:00 UTC

Jul-19@
12:00 UTC

Jul-19 @ 12:00 UTC

BECMG 1902/1904 VRB02KT 9999 NSW SCT026 SCT080

Becoming

Becoming Conditions expected by Fri, Jul 19, 2019 @ 04:00 UTC

Wind
  • Variable at 2 KTS
Conditions
No significant weather
Cloud Levels
  • Scattered at 2,600' AGL
  • Scattered at 8,000' AGL